sensor_id;sensor_type;location;lat;lon;timestamp;pressure;altitude;pressure_sealevel;temperature;humidity
74242;BME280;62599;49.146;10.426;2023-05-25T00:01:23;96197.22;;;7.10;84.99
74242;BME280;62599;49.146;10.426;2023-05-25T00:03:50;96204.66;;;7.13;84.95
74242;BME280;62599;49.146;10.426;2023-05-25T00:06:32;96200.31;;;7.17;84.56
74242;BME280;62599;49.146;10.426;2023-05-25T00:09:50;96193.56;;;7.19;84.36
74242;BME280;62599;49.146;10.426;2023-05-25T00:13:24;96196.53;;;7.18;84.44
74242;BME280;62599;49.146;10.426;2023-05-25T00:15:50;96191.97;;;7.18;84.23
74242;BME280;62599;49.146;10.426;2023-05-25T00:18:15;96192.09;;;7.27;83.80
74242;BME280;62599;49.146;10.426;2023-05-25T00:24:42;96183.84;;;7.37;83.68
74242;BME280;62599;49.146;10.426;2023-05-25T00:27:47;96182.63;;;7.43;83.66
74242;BME280;62599;49.146;10.426;2023-05-25T00:30:12;96186.81;;;7.50;83.43
74242;BME280;62599;49.146;10.426;2023-05-25T00:36:06;96178.38;;;7.56;82.59
74242;BME280;62599;49.146;10.426;2023-05-25T00:38:32;96167.34;;;7.58;81.89
74242;BME280;62599;49.146;10.426;2023-05-25T00:40:58;96176.38;;;7.62;81.85
74242;BME280;62599;49.146;10.426;2023-05-25T00:43:23;96169.13;;;7.62;81.46
74242;BME280;62599;49.146;10.426;2023-05-25T00:45:49;96172.00;;;7.66;81.83
74242;BME280;62599;49.146;10.426;2023-05-25T00:48:18;96177.88;;;7.68;81.88
74242;BME280;62599;49.146;10.426;2023-05-25T00:50:44;96178.38;;;7.70;81.33
74242;BME280;62599;49.146;10.426;2023-05-25T00:53:11;96170.53;;;7.74;81.02
74242;BME280;62599;49.146;10.426;2023-05-25T00:58:06;96174.47;;;7.76;81.22
74242;BME280;62599;49.146;10.426;2023-05-25T01:00:33;96165.63;;;7.76;81.03
74242;BME280;62599;49.146;10.426;2023-05-25T01:03:03;96166.94;;;7.78;81.52
74242;BME280;62599;49.146;10.426;2023-05-25T01:05:33;96174.97;;;7.78;81.00
74242;BME280;62599;49.146;10.426;2023-05-25T01:08:01;96169.28;;;7.80;81.04
74242;BME280;62599;49.146;10.426;2023-05-25T01:10:30;96171.50;;;7.78;81.12
74242;BME280;62599;49.146;10.426;2023-05-25T01:12:58;96176.25;;;7.81;81.17
74242;BME280;62599;49.146;10.426;2023-05-25T01:22:00;96168.22;;;7.81;81.49
74242;BME280;62599;49.146;10.426;2023-05-25T01:24:35;96174.66;;;7.80;81.76
74242;BME280;62599;49.146;10.426;2023-05-25T01:29:48;96179.75;;;7.81;82.08
74242;BME280;62599;49.146;10.426;2023-05-25T01:32:16;96177.53;;;7.83;81.82
74242;BME280;62599;49.146;10.426;2023-05-25T01:34:42;96178.03;;;7.85;81.52
74242;BME280;62599;49.146;10.426;2023-05-25T01:37:10;96175.63;;;7.84;81.80
74242;BME280;62599;49.146;10.426;2023-05-25T01:39:38;96183.41;;;7.85;82.46
74242;BME280;62599;49.146;10.426;2023-05-25T01:42:03;96184.00;;;7.82;81.78
74242;BME280;62599;49.146;10.426;2023-05-25T01:44:29;96184.31;;;7.81;82.35
74242;BME280;62599;49.146;10.426;2023-05-25T01:52:25;96184.81;;;7.69;83.54
74242;BME280;62599;49.146;10.426;2023-05-25T01:54:58;96183.34;;;7.63;83.88
74242;BME280;62599;49.146;10.426;2023-05-25T01:57:25;96179.16;;;7.57;84.18
74242;BME280;62599;49.146;10.426;2023-05-25T01:59:54;96188.59;;;7.54;83.87
74242;BME280;62599;49.146;10.426;2023-05-25T02:02:22;96182.94;;;7.56;84.12
74242;BME280;62599;49.146;10.426;2023-05-25T02:04:48;96177.28;;;7.57;84.15
74242;BME280;62599;49.146;10.426;2023-05-25T02:07:13;96185.19;;;7.62;83.08
74242;BME280;62599;49.146;10.426;2023-05-25T02:09:39;96185.41;;;7.66;83.49
74242;BME280;62599;49.146;10.426;2023-05-25T02:12:04;96183.22;;;7.68;83.37
74242;BME280;62599;49.146;10.426;2023-05-25T02:14:30;96179.16;;;7.70;83.08
74242;BME280;62599;49.146;10.426;2023-05-25T02:16:55;96178.38;;;7.70;82.56
74242;BME280;62599;49.146;10.426;2023-05-25T02:19:22;96180.03;;;7.66;83.23
74242;BME280;62599;49.146;10.426;2023-05-25T02:21:47;96176.88;;;7.64;83.40
74242;BME280;62599;49.146;10.426;2023-05-25T02:24:12;96173.81;;;7.57;83.32
74242;BME280;62599;49.146;10.426;2023-05-25T02:26:38;96164.88;;;7.47;84.17
74242;BME280;62599;49.146;10.426;2023-05-25T02:29:46;96160.22;;;7.39;84.00
74242;BME280;62599;49.146;10.426;2023-05-25T02:37:03;96152.78;;;7.22;85.14
74242;BME280;62599;49.146;10.426;2023-05-25T02:39:49;96152.50;;;7.24;84.77
74242;BME280;62599;49.146;10.426;2023-05-25T02:42:14;96161.00;;;7.26;84.66
74242;BME280;62599;49.146;10.426;2023-05-25T02:44:40;96158.31;;;7.26;84.78
74242;BME280;62599;49.146;10.426;2023-05-25T02:47:06;96168.56;;;7.24;84.94
74242;BME280;62599;49.146;10.426;2023-05-25T02:49:35;96156.84;;;7.20;85.26
74242;BME280;62599;49.146;10.426;2023-05-25T02:52:00;96157.44;;;7.17;85.19
74242;BME280;62599;49.146;10.426;2023-05-25T02:54:25;96164.97;;;7.15;85.16
74242;BME280;62599;49.146;10.426;2023-05-25T02:56:51;96166.97;;;7.09;85.64
74242;BME280;62599;49.146;10.426;2023-05-25T02:59:16;96166.56;;;7.02;85.78
74242;BME280;62599;49.146;10.426;2023-05-25T03:01:42;96176.09;;;6.94;86.51
74242;BME280;62599;49.146;10.426;2023-05-25T03:04:07;96158.63;;;6.83;86.90
74242;BME280;62599;49.146;10.426;2023-05-25T03:06:32;96165.66;;;6.79;87.34
74242;BME280;62599;49.146;10.426;2023-05-25T03:09:00;96167.41;;;6.70;88.00
74242;BME280;62599;49.146;10.426;2023-05-25T03:11:25;96168.56;;;6.64;88.20
74242;BME280;62599;49.146;10.426;2023-05-25T03:14:42;96169.75;;;6.58;89.02
74242;BME280;62599;49.146;10.426;2023-05-25T03:21:58;96187.66;;;6.43;90.32
74242;BME280;62599;49.146;10.426;2023-05-25T03:25:24;96187.22;;;6.36;91.02
74242;BME280;62599;49.146;10.426;2023-05-25T03:28:18;96198.50;;;6.33;91.67
74242;BME280;62599;49.146;10.426;2023-05-25T03:30:44;96191.38;;;6.29;91.62
74242;BME280;62599;49.146;10.426;2023-05-25T03:33:10;96198.09;;;6.26;91.57
74242;BME280;62599;49.146;10.426;2023-05-25T03:35:38;96202.44;;;6.22;92.27
74242;BME280;62599;49.146;10.426;2023-05-25T03:38:03;96204.59;;;6.20;92.23
74242;BME280;62599;49.146;10.426;2023-05-25T03:40:28;96207.56;;;6.18;92.26
74242;BME280;62599;49.146;10.426;2023-05-25T03:42:54;96210.81;;;6.15;92.98
74242;BME280;62599;49.146;10.426;2023-05-25T03:45:19;96210.06;;;6.10;92.96
74242;BME280;62599;49.146;10.426;2023-05-25T03:47:48;96213.34;;;6.07;93.90
74242;BME280;62599;49.146;10.426;2023-05-25T03:50:14;96210.25;;;5.99;93.98
74242;BME280;62599;49.146;10.426;2023-05-25T03:52:39;96215.84;;;5.98;94.31
74242;BME280;62599;49.146;10.426;2023-05-25T03:55:40;96218.84;;;5.96;95.11
74242;BME280;62599;49.146;10.426;2023-05-25T03:58:45;96219.09;;;5.95;95.14
74242;BME280;62599;49.146;10.426;2023-05-25T04:01:10;96218.84;;;5.96;95.26
74242;BME280;62599;49.146;10.426;2023-05-25T04:03:37;96221.72;;;6.00;94.99
74242;BME280;62599;49.146;10.426;2023-05-25T04:06:02;96228.66;;;6.01;94.93
74242;BME280;62599;49.146;10.426;2023-05-25T04:08:28;96228.88;;;6.05;95.08
74242;BME280;62599;49.146;10.426;2023-05-25T04:10:53;96220.34;;;6.02;95.79
74242;BME280;62599;49.146;10.426;2023-05-25T04:16:44;96221.38;;;6.07;95.82
74242;BME280;62599;49.146;10.426;2023-05-25T04:19:10;96223.16;;;6.11;95.44
74242;BME280;62599;49.146;10.426;2023-05-25T04:21:35;96225.75;;;6.16;95.69
74242;BME280;62599;49.146;10.426;2023-05-25T04:24:00;96223.81;;;6.22;95.02
74242;BME280;62599;49.146;10.426;2023-05-25T04:27:06;96231.09;;;6.35;94.21
74242;BME280;62599;49.146;10.426;2023-05-25T04:30:15;96218.66;;;6.44;93.71
74242;BME280;62599;49.146;10.426;2023-05-25T04:32:40;96226.31;;;6.51;92.79
74242;BME280;62599;49.146;10.426;2023-05-25T04:35:09;96228.13;;;6.56;92.82
74242;BME280;62599;49.146;10.426;2023-05-25T04:37:35;96228.53;;;6.63;92.93
74242;BME280;62599;49.146;10.426;2023-05-25T04:40:04;96225.78;;;6.68;92.09
74242;BME280;62599;49.146;10.426;2023-05-25T04:46:31;96238.94;;;6.83;90.79
74242;BME280;62599;49.146;10.426;2023-05-25T04:50:10;96240.94;;;6.91;91.09
74242;BME280;62599;49.146;10.426;2023-05-25T04:53:39;96237.56;;;6.99;90.51
74242;BME280;62599;49.146;10.426;2023-05-25T04:57:11;96248.69;;;7.07;89.80
74242;BME280;62599;49.146;10.426;2023-05-25T05:07:37;96245.75;;;7.36;88.99
74242;BME280;62599;49.146;10.426;2023-05-25T05:10:34;96249.38;;;7.45;87.88
74242;BME280;62599;49.146;10.426;2023-05-25T05:17:32;96249.47;;;7.67;87.29
74242;BME280;62599;49.146;10.426;2023-05-25T05:20:48;96255.91;;;7.80;85.86
74242;BME280;62599;49.146;10.426;2023-05-25T05:23:13;96261.56;;;7.92;85.20
74242;BME280;62599;49.146;10.426;2023-05-25T05:25:38;96265.63;;;8.04;85.02
74242;BME280;62599;49.146;10.426;2023-05-25T05:28:04;96264.50;;;8.18;83.70
74242;BME280;62599;49.146;10.426;2023-05-25T05:30:30;96269.25;;;8.35;83.79
74242;BME280;62599;49.146;10.426;2023-05-25T05:32:55;96265.31;;;8.55;82.05
74242;BME280;62599;49.146;10.426;2023-05-25T05:35:21;96268.03;;;8.78;81.30
74242;BME280;62599;49.146;10.426;2023-05-25T05:37:46;96270.22;;;8.98;80.83
74242;BME280;62599;49.146;10.426;2023-05-25T05:40:12;96275.97;;;9.36;80.04
74242;BME280;62599;49.146;10.426;2023-05-25T05:42:38;96281.75;;;9.52;77.24
74242;BME280;62599;49.146;10.426;2023-05-25T05:45:04;96278.31;;;9.60;77.22
74242;BME280;62599;49.146;10.426;2023-05-25T05:47:30;96279.78;;;9.67;76.06
74242;BME280;62599;49.146;10.426;2023-05-25T05:49:55;96275.66;;;9.69;75.92
74242;BME280;62599;49.146;10.426;2023-05-25T05:52:21;96281.44;;;9.94;75.98
74242;BME280;62599;49.146;10.426;2023-05-25T05:54:46;96273.88;;;10.04;75.18
74242;BME280;62599;49.146;10.426;2023-05-25T05:57:12;96285.56;;;10.00;74.45
74242;BME280;62599;49.146;10.426;2023-05-25T05:59:37;96283.00;;;9.95;75.13
74242;BME280;62599;49.146;10.426;2023-05-25T06:02:03;96278.69;;;9.76;75.57
74242;BME280;62599;49.146;10.426;2023-05-25T06:04:28;96286.47;;;9.78;75.94
74242;BME280;62599;49.146;10.426;2023-05-25T06:06:54;96282.22;;;9.85;75.17
74242;BME280;62599;49.146;10.426;2023-05-25T06:09:19;96288.72;;;10.02;74.83
74242;BME280;62599;49.146;10.426;2023-05-25T06:11:46;96298.13;;;10.13;73.99
74242;BME280;62599;49.146;10.426;2023-05-25T06:14:11;96289.94;;;10.27;72.63
74242;BME280;62599;49.146;10.426;2023-05-25T06:16:37;96295.84;;;10.55;73.21
74242;BME280;62599;49.146;10.426;2023-05-25T06:19:02;96304.09;;;10.84;71.52
74242;BME280;62599;49.146;10.426;2023-05-25T06:21:27;96298.53;;;10.98;70.96
74242;BME280;62599;49.146;10.426;2023-05-25T06:23:53;96301.22;;;11.07;71.23
74242;BME280;62599;49.146;10.426;2023-05-25T06:26:22;96297.44;;;10.91;70.01
74242;BME280;62599;49.146;10.426;2023-05-25T06:28:49;96307.59;;;10.94;71.06
74242;BME280;62599;49.146;10.426;2023-05-25T06:31:15;96304.88;;;11.02;71.40
74242;BME280;62599;49.146;10.426;2023-05-25T06:33:40;96302.63;;;11.22;70.41
74242;BME280;62599;49.146;10.426;2023-05-25T06:36:07;96301.19;;;11.24;69.40
74242;BME280;62599;49.146;10.426;2023-05-25T06:38:33;96299.44;;;11.37;68.68
74242;BME280;62599;49.146;10.426;2023-05-25T06:40:59;96295.03;;;11.15;68.74
74242;BME280;62599;49.146;10.426;2023-05-25T06:43:27;96308.22;;;10.99;70.33
74242;BME280;62599;49.146;10.426;2023-05-25T06:45:53;96305.84;;;11.15;70.11
74242;BME280;62599;49.146;10.426;2023-05-25T06:48:18;96305.53;;;11.08;70.17
74242;BME280;62599;49.146;10.426;2023-05-25T06:50:44;96299.00;;;11.18;69.65
74242;BME280;62599;49.146;10.426;2023-05-25T06:53:10;96301.38;;;11.19;70.25
74242;BME280;62599;49.146;10.426;2023-05-25T06:55:36;96304.88;;;11.20;69.62
74242;BME280;62599;49.146;10.426;2023-05-25T06:58:01;96308.16;;;11.25;69.59
74242;BME280;62599;49.146;10.426;2023-05-25T07:00:26;96306.41;;;11.38;68.72
74242;BME280;62599;49.146;10.426;2023-05-25T07:02:52;96310.94;;;11.64;67.98
74242;BME280;62599;49.146;10.426;2023-05-25T07:05:17;96310.03;;;12.07;67.20
74242;BME280;62599;49.146;10.426;2023-05-25T07:07:42;96303.91;;;12.48;66.98
74242;BME280;62599;49.146;10.426;2023-05-25T07:10:08;96302.66;;;12.66;65.18
74242;BME280;62599;49.146;10.426;2023-05-25T07:12:33;96306.66;;;12.39;65.91
74242;BME280;62599;49.146;10.426;2023-05-25T07:14:59;96306.28;;;12.70;65.99
74242;BME280;62599;49.146;10.426;2023-05-25T07:17:24;96302.53;;;12.42;65.58
74242;BME280;62599;49.146;10.426;2023-05-25T07:19:50;96304.84;;;11.93;67.31
74242;BME280;62599;49.146;10.426;2023-05-25T07:22:16;96310.09;;;11.80;67.12
74242;BME280;62599;49.146;10.426;2023-05-25T07:24:44;96309.81;;;11.73;68.96
74242;BME280;62599;49.146;10.426;2023-05-25T07:27:10;96296.09;;;11.96;68.61
74242;BME280;62599;49.146;10.426;2023-05-25T07:29:35;96306.19;;;12.08;68.23
74242;BME280;62599;49.146;10.426;2023-05-25T07:32:01;96294.91;;;12.14;69.16
74242;BME280;62599;49.146;10.426;2023-05-25T07:34:26;96303.38;;;12.55;67.48
74242;BME280;62599;49.146;10.426;2023-05-25T07:36:52;96306.63;;;12.69;67.37
74242;BME280;62599;49.146;10.426;2023-05-25T07:39:17;96300.78;;;13.21;66.12
74242;BME280;62599;49.146;10.426;2023-05-25T07:41:43;96304.78;;;13.69;64.72
74242;BME280;62599;49.146;10.426;2023-05-25T07:44:08;96298.16;;;14.15;62.69
74242;BME280;62599;49.146;10.426;2023-05-25T07:46:34;96295.91;;;14.42;61.12
74242;BME280;62599;49.146;10.426;2023-05-25T07:48:59;96303.78;;;14.72;60.27
74242;BME280;62599;49.146;10.426;2023-05-25T07:51:28;96303.94;;;14.51;58.19
74242;BME280;62599;49.146;10.426;2023-05-25T07:53:55;96313.97;;;14.38;60.15
74242;BME280;62599;49.146;10.426;2023-05-25T07:56:21;96309.22;;;14.47;61.76
74242;BME280;62599;49.146;10.426;2023-05-25T07:58:47;96304.72;;;14.51;61.13
74242;BME280;62599;49.146;10.426;2023-05-25T08:01:13;96300.31;;;14.34;62.78
74242;BME280;62599;49.146;10.426;2023-05-25T08:03:38;96297.28;;;14.24;62.89
74242;BME280;62599;49.146;10.426;2023-05-25T08:06:04;96297.94;;;14.08;62.88
74242;BME280;62599;49.146;10.426;2023-05-25T08:08:30;96307.97;;;14.08;63.34
74242;BME280;62599;49.146;10.426;2023-05-25T08:10:56;96301.41;;;14.09;62.94
74242;BME280;62599;49.146;10.426;2023-05-25T08:13:21;96310.03;;;13.99;64.19
74242;BME280;62599;49.146;10.426;2023-05-25T08:15:47;96307.97;;;14.08;63.32
74242;BME280;62599;49.146;10.426;2023-05-25T08:18:14;96316.00;;;14.16;63.29
74242;BME280;62599;49.146;10.426;2023-05-25T08:20:39;96310.03;;;14.11;62.79
74242;BME280;62599;49.146;10.426;2023-05-25T08:23:05;96305.84;;;14.13;63.55
74242;BME280;62599;49.146;10.426;2023-05-25T08:25:30;96309.22;;;14.23;63.77
74242;BME280;62599;49.146;10.426;2023-05-25T08:27:56;96319.63;;;14.20;62.75
74242;BME280;62599;49.146;10.426;2023-05-25T08:30:21;96316.00;;;14.16;62.73
74242;BME280;62599;49.146;10.426;2023-05-25T08:32:47;96317.47;;;14.38;63.19
74242;BME280;62599;49.146;10.426;2023-05-25T08:35:12;96313.75;;;14.43;63.01
74242;BME280;62599;49.146;10.426;2023-05-25T08:37:41;96312.38;;;14.49;62.49
74242;BME280;62599;49.146;10.426;2023-05-25T08:40:13;96317.59;;;14.42;61.18
74242;BME280;62599;49.146;10.426;2023-05-25T08:42:43;96317.34;;;14.72;63.39
74242;BME280;62599;49.146;10.426;2023-05-25T08:45:09;96316.25;;;15.01;62.21
74242;BME280;62599;49.146;10.426;2023-05-25T08:47:40;96313.34;;;15.22;60.70
74242;BME280;62599;49.146;10.426;2023-05-25T08:50:10;96310.94;;;15.32;60.34
74242;BME280;62599;49.146;10.426;2023-05-25T08:52:43;96316.09;;;15.37;60.30
74242;BME280;62599;49.146;10.426;2023-05-25T08:55:09;96317.19;;;15.49;60.68
74242;BME280;62599;49.146;10.426;2023-05-25T08:57:45;96318.13;;;15.69;60.41
74242;BME280;62599;49.146;10.426;2023-05-25T09:00:13;96319.13;;;15.64;58.46
74242;BME280;62599;49.146;10.426;2023-05-25T09:02:59;96327.44;;;15.83;59.34
74242;BME280;62599;49.146;10.426;2023-05-25T09:05:26;96316.03;;;15.78;58.75
74242;BME280;62599;49.146;10.426;2023-05-25T09:07:52;96317.41;;;15.72;59.64
74242;BME280;62599;49.146;10.426;2023-05-25T09:10:22;96317.34;;;15.84;59.08
74242;BME280;62599;49.146;10.426;2023-05-25T09:12:48;96319.28;;;15.99;59.27
74242;BME280;62599;49.146;10.426;2023-05-25T09:15:15;96316.66;;;16.19;58.85
74242;BME280;62599;49.146;10.426;2023-05-25T09:17:41;96316.47;;;16.11;55.55
74242;BME280;62599;49.146;10.426;2023-05-25T09:20:10;96327.28;;;16.24;58.12
74242;BME280;62599;49.146;10.426;2023-05-25T09:22:37;96309.06;;;16.44;58.74
74242;BME280;62599;49.146;10.426;2023-05-25T09:25:05;96321.00;;;16.55;57.65
74242;BME280;62599;49.146;10.426;2023-05-25T09:27:35;96323.72;;;16.55;56.34
74242;BME280;62599;49.146;10.426;2023-05-25T09:30:02;96316.63;;;16.50;55.60
74242;BME280;62599;49.146;10.426;2023-05-25T09:32:28;96320.53;;;16.69;57.61
74242;BME280;62599;49.146;10.426;2023-05-25T09:34:53;96327.63;;;16.73;56.91
74242;BME280;62599;49.146;10.426;2023-05-25T09:37:20;96327.22;;;16.55;55.08
74242;BME280;62599;49.146;10.426;2023-05-25T09:39:46;96320.53;;;16.69;56.05
74242;BME280;62599;49.146;10.426;2023-05-25T09:42:12;96319.75;;;16.68;55.23
74242;BME280;62599;49.146;10.426;2023-05-25T09:44:41;96324.44;;;16.87;56.63
74242;BME280;62599;49.146;10.426;2023-05-25T09:47:09;96321.19;;;16.97;54.86
74242;BME280;62599;49.146;10.426;2023-05-25T09:49:35;96332.38;;;17.12;56.01
74242;BME280;62599;49.146;10.426;2023-05-25T09:52:01;96325.97;;;17.23;55.15
74242;BME280;62599;49.146;10.426;2023-05-25T09:54:26;96322.31;;;17.16;54.27
74242;BME280;62599;49.146;10.426;2023-05-25T09:56:53;96323.06;;;17.32;55.89
74242;BME280;62599;49.146;10.426;2023-05-25T09:59:18;96326.47;;;17.48;55.92
74242;BME280;62599;49.146;10.426;2023-05-25T10:01:50;96321.59;;;17.58;55.49
74242;BME280;62599;49.146;10.426;2023-05-25T10:04:15;96326.50;;;17.71;54.06
74242;BME280;62599;49.146;10.426;2023-05-25T10:06:41;96327.75;;;17.54;53.61
74242;BME280;62599;49.146;10.426;2023-05-25T10:09:09;96326.16;;;17.53;54.23
74242;BME280;62599;49.146;10.426;2023-05-25T10:11:37;96335.06;;;17.70;54.24
74242;BME280;62599;49.146;10.426;2023-05-25T10:14:05;96336.50;;;17.83;55.05
74242;BME280;62599;49.146;10.426;2023-05-25T10:16:32;96335.81;;;17.90;55.19
74242;BME280;62599;49.146;10.426;2023-05-25T10:19:14;96335.84;;;18.13;54.61
74242;BME280;62599;49.146;10.426;2023-05-25T10:21:47;96324.22;;;18.16;53.74
74242;BME280;62599;49.146;10.426;2023-05-25T10:24:34;96336.84;;;18.27;54.68
74242;BME280;62599;49.146;10.426;2023-05-25T10:27:02;96346.66;;;18.32;53.55
74242;BME280;62599;49.146;10.426;2023-05-25T10:29:32;96343.31;;;18.42;53.40
74242;BME280;62599;49.146;10.426;2023-05-25T10:31:59;96342.47;;;18.38;53.37
74242;BME280;62599;49.146;10.426;2023-05-25T10:34:25;96342.38;;;18.58;53.49
74242;BME280;62599;49.146;10.426;2023-05-25T10:36:52;96336.97;;;18.61;52.88
74242;BME280;62599;49.146;10.426;2023-05-25T10:39:19;96339.59;;;18.54;50.63
74242;BME280;62599;49.146;10.426;2023-05-25T10:41:46;96319.28;;;18.25;52.39
74242;BME280;62599;49.146;10.426;2023-05-25T10:44:12;96333.69;;;18.48;51.68
74242;BME280;62599;49.146;10.426;2023-05-25T10:46:38;96334.69;;;18.63;52.21
74242;BME280;62599;49.146;10.426;2023-05-25T10:49:04;96314.41;;;18.64;51.61
74242;BME280;62599;49.146;10.426;2023-05-25T10:51:40;96320.34;;;18.70;52.02
74242;BME280;62599;49.146;10.426;2023-05-25T10:54:05;96322.66;;;18.68;51.68
74242;BME280;62599;49.146;10.426;2023-05-25T10:56:31;96333.53;;;18.38;50.33
74242;BME280;62599;49.146;10.426;2023-05-25T10:58:57;96330.41;;;18.39;50.16
74242;BME280;62599;49.146;10.426;2023-05-25T11:01:23;96330.91;;;18.45;50.62
74242;BME280;62599;49.146;10.426;2023-05-25T11:06:18;96339.38;;;18.40;51.39
74242;BME280;62599;49.146;10.426;2023-05-25T11:08:59;96328.84;;;18.65;52.19
74242;BME280;62599;49.146;10.426;2023-05-25T11:17:09;96324.97;;;19.22;50.32
74242;BME280;62599;49.146;10.426;2023-05-25T11:19:42;96329.09;;;19.39;48.91
74242;BME280;62599;49.146;10.426;2023-05-25T11:22:34;96327.38;;;18.97;48.70
74242;BME280;62599;49.146;10.426;2023-05-25T11:25:03;96326.59;;;19.27;51.36
74242;BME280;62599;49.146;10.426;2023-05-25T11:27:47;96320.63;;;19.52;49.85
74242;BME280;62599;49.146;10.426;2023-05-25T11:30:16;96330.31;;;19.45;48.33
74242;BME280;62599;49.146;10.426;2023-05-25T11:32:47;96318.59;;;19.45;48.35
74242;BME280;62599;49.146;10.426;2023-05-25T11:35:14;96312.69;;;19.39;49.52
74242;BME280;62599;49.146;10.426;2023-05-25T11:37:41;96322.03;;;19.68;49.83
74242;BME280;62599;49.146;10.426;2023-05-25T11:40:13;96322.84;;;19.42;48.22
74242;BME280;62599;49.146;10.426;2023-05-25T11:42:40;96332.47;;;19.29;48.07
74242;BME280;62599;49.146;10.426;2023-05-25T11:45:10;96320.78;;;19.62;49.60
74242;BME280;62599;49.146;10.426;2023-05-25T11:47:35;96310.78;;;19.77;48.12
74242;BME280;62599;49.146;10.426;2023-05-25T11:50:01;96317.50;;;19.87;48.22
74242;BME280;62599;49.146;10.426;2023-05-25T11:52:27;96319.03;;;19.84;47.25
74242;BME280;62599;49.146;10.426;2023-05-25T11:54:53;96310.81;;;19.81;48.60
74242;BME280;62599;49.146;10.426;2023-05-25T11:57:25;96300.19;;;19.72;47.91
74242;BME280;62599;49.146;10.426;2023-05-25T11:59:55;96316.72;;;19.86;48.98
74242;BME280;62599;49.146;10.426;2023-05-25T12:02:22;96320.47;;;20.12;48.64
74242;BME280;62599;49.146;10.426;2023-05-25T12:04:55;96323.84;;;20.42;48.59
74242;BME280;62599;49.146;10.426;2023-05-25T12:07:22;96324.66;;;20.47;48.04
74242;BME280;62599;49.146;10.426;2023-05-25T12:09:47;96324.78;;;20.61;46.75
74242;BME280;62599;49.146;10.426;2023-05-25T12:12:13;96322.63;;;20.88;48.17
74242;BME280;62599;49.146;10.426;2023-05-25T12:14:49;96314.13;;;21.11;46.93
74242;BME280;62599;49.146;10.426;2023-05-25T12:17:15;96310.59;;;21.07;45.65
74242;BME280;62599;49.146;10.426;2023-05-25T12:19:41;96311.34;;;21.04;44.96
74242;BME280;62599;49.146;10.426;2023-05-25T12:22:07;96317.44;;;20.76;45.06
74242;BME280;62599;49.146;10.426;2023-05-25T12:24:33;96309.00;;;20.43;46.54
74242;BME280;62599;49.146;10.426;2023-05-25T12:26:58;96302.75;;;20.47;47.60
74242;BME280;62599;49.146;10.426;2023-05-25T12:29:27;96307.44;;;20.42;47.11
74242;BME280;62599;49.146;10.426;2023-05-25T12:31:52;96302.66;;;20.32;46.05
74242;BME280;62599;49.146;10.426;2023-05-25T12:34:26;96307.34;;;20.32;46.62
74242;BME280;62599;49.146;10.426;2023-05-25T12:36:53;96300.28;;;20.27;46.55
74242;BME280;62599;49.146;10.426;2023-05-25T12:41:54;96302.16;;;20.16;46.71
74242;BME280;62599;49.146;10.426;2023-05-25T12:44:39;96296.78;;;20.30;46.95
74242;BME280;62599;49.146;10.426;2023-05-25T12:47:09;96293.75;;;20.42;46.92
74242;BME280;62599;49.146;10.426;2023-05-25T12:49:35;96300.06;;;20.50;46.62
74242;BME280;62599;49.146;10.426;2023-05-25T12:52:05;96294.28;;;20.59;46.30
74242;BME280;62599;49.146;10.426;2023-05-25T12:54:48;96300.97;;;20.65;45.59
74242;BME280;62599;49.146;10.426;2023-05-25T12:57:15;96294.38;;;20.80;47.06
74242;BME280;62599;49.146;10.426;2023-05-25T12:59:42;96299.66;;;21.14;45.93
74242;BME280;62599;49.146;10.426;2023-05-25T13:02:09;96296.88;;;21.03;45.01
74242;BME280;62599;49.146;10.426;2023-05-25T13:04:36;96288.94;;;20.87;45.29
74242;BME280;62599;49.146;10.426;2023-05-25T13:07:03;96302.19;;;20.75;44.80
74242;BME280;62599;49.146;10.426;2023-05-25T13:09:29;96296.31;;;20.73;46.54
74242;BME280;62599;49.146;10.426;2023-05-25T13:11:55;96293.63;;;20.83;45.56
74242;BME280;62599;49.146;10.426;2023-05-25T13:14:22;96289.34;;;20.86;45.43
74242;BME280;62599;49.146;10.426;2023-05-25T13:16:51;96291.66;;;20.80;45.32
74242;BME280;62599;49.146;10.426;2023-05-25T13:19:18;96289.44;;;21.04;46.10
74242;BME280;62599;49.146;10.426;2023-05-25T13:21:44;96285.22;;;21.24;44.78
74242;BME280;62599;49.146;10.426;2023-05-25T13:24:11;96285.72;;;21.48;44.22
74242;BME280;62599;49.146;10.426;2023-05-25T13:26:37;96282.84;;;21.19;43.46
74242;BME280;62599;49.146;10.426;2023-05-25T13:29:02;96282.81;;;21.12;44.90
74242;BME280;62599;49.146;10.426;2023-05-25T13:31:28;96279.75;;;21.31;45.60
74242;BME280;62599;49.146;10.426;2023-05-25T13:33:53;96284.06;;;21.29;45.18
74242;BME280;62599;49.146;10.426;2023-05-25T13:36:19;96282.19;;;21.47;45.56
74242;BME280;62599;49.146;10.426;2023-05-25T13:38:44;96278.56;;;21.29;43.15
74242;BME280;62599;49.146;10.426;2023-05-25T13:41:10;96279.72;;;21.17;44.55
74242;BME280;62599;49.146;10.426;2023-05-25T13:43:36;96283.59;;;21.16;43.81
74242;BME280;62599;49.146;10.426;2023-05-25T13:46:02;96289.06;;;21.12;43.92
74242;BME280;62599;49.146;10.426;2023-05-25T13:48:27;96277.31;;;21.05;44.22
74242;BME280;62599;49.146;10.426;2023-05-25T13:50:54;96272.28;;;21.21;45.38
74242;BME280;62599;49.146;10.426;2023-05-25T13:53:19;96271.56;;;21.38;44.34
74242;BME280;62599;49.146;10.426;2023-05-25T13:55:45;96275.50;;;21.45;43.87
74242;BME280;62599;49.146;10.426;2023-05-25T13:58:33;96275.16;;;21.46;43.21
74242;BME280;62599;49.146;10.426;2023-05-25T14:01:14;96260.25;;;21.51;43.68
74242;BME280;62599;49.146;10.426;2023-05-25T14:04:04;96260.25;;;21.47;43.59
74242;BME280;62599;49.146;10.426;2023-05-25T14:13:59;96258.72;;;21.57;43.40
74242;BME280;62599;49.146;10.426;2023-05-25T14:17:12;96261.06;;;21.62;42.97
74242;BME280;62599;49.146;10.426;2023-05-25T14:28:35;96266.53;;;22.80;41.51